• Join FlightAware (Why Join?)
  • Login
  • US Flag 
09:50AM EDT


 

Airport Tracker/Info


-or-


 

Live Flight TrackerFlight Track Log ✈ FDX1254 ✈ 22-Apr-2013 ✈ KPVD - KFWA

Flight Track Log - Related Links

Times and Time Zones

All times are in EDT time to prevent confusion due to time zone crossing. See the FDX1254 flight status page for this flight to view local times or setup timezone preferences in your user account.

Time Position Orientation Groundspeed Altitude Reporting Facility
EDT Latitude Longitude Course Direction KTS MPH feet Rate Location/Type
09:13PM 41.8310 -71.5290 298° West 282 325 7,000  Level FlightAware
09:14PM 41.8460 -71.5690 297° West 276 318 8,900 2,880 Climbing FlightAware
09:15PM 41.8700 -71.6430 294° West 331 381 10,400 1,920 Climbing FlightAware
09:15PM 41.8960 -71.7230 294° West 376 433 11,700 1,680 Climbing FlightAware
09:16PM 41.9370 -71.8450 294° West 388 447 13,100 2,040 Climbing FlightAware
09:17PM 41.9370 -71.8450 294° West 390 449 15,000 2,820 Climbing FlightAware
09:18PM 41.9360 -71.8470 236° Southwest 400 460 16,900 3,420 Climbing FlightAware
09:18PM 42.0370 -72.1510 294° West 424 488 20,200 2,460 Climbing FlightAware
09:19PM 42.0740 -72.2770 292° West 440 506 21,000 480 Climbing FlightAware
09:20PM 42.0990 -72.3640 291° West 440 506 21,000 3,600 Level FlightAware
09:21PM 42.1500 -72.5000 297° West 443 510 26,100 4,500 Climbing FlightAware
09:21PM 42.1840 -72.6090 293° West 440 506 27,800 2,400 Climbing FlightAware
09:22PM 42.2150 -72.7090 293° West 432 497 29,500 2,280 Climbing FlightAware
09:23PM 42.2510 -72.8200 294° West 432 497 31,100 2,280 Climbing FlightAware
09:23PM 42.2820 -72.9200 293° West 419 482 32,800 1,680 Climbing FlightAware
09:24PM 42.2900 -73.0330 276° West 392 451 33,700 540 Climbing FlightAware
09:25PM 42.2910 -73.1370 271° West 392 451 33,700 2,760 Level FlightAware
09:26PM 42.2660 -73.2450 253° West 357 411 37,900 3,360 Climbing FlightAware
09:27PM 42.2570 -73.3420 263° West 369 425 38,500 900 Climbing FlightAware
09:27PM 42.2515 -73.4018 263° West 374 430 39,000 1,140 Climbing FlightAware ADS-B
09:28PM 42.2435 -73.4905 263° West 378 435 39,700 900 Climbing FlightAware ADS-B
09:28PM 42.2363 -73.5708 263° West 384 442 40,100 360 Climbing FlightAware ADS-B
09:29PM 42.2294 -73.6445 263° West 384 442 40,100  Level FlightAware ADS-B
09:29PM 42.2219 -73.7274 263° West 385 443 40,100  Level FlightAware ADS-B
09:30PM 42.2148 -73.8014 263° West 387 445 40,100 -120 Level FlightAware ADS-B
09:30PM 42.2074 -73.8804 263° West 389 448 40,000  Descending FlightAware ADS-B
09:31PM 42.2005 -73.9553 263° West 391 450 40,100 60 Climbing FlightAware ADS-B
09:31PM 42.1930 -74.0327 263° West 392 451 40,100 -120 Level FlightAware ADS-B
09:32PM 42.1851 -74.1151 263° West 394 453 40,000  Descending FlightAware ADS-B
09:33PM 42.1717 -74.2542 263° West 395 455 40,100 60 Climbing FlightAware ADS-B
09:33PM 42.1644 -74.3276 262° West 396 456 40,100  Level FlightAware ADS-B
09:34PM 42.1566 -74.4083 263° West 397 457 40,100  Level FlightAware ADS-B
09:34PM 42.1490 -74.4845 262° West 398 458 40,100 -120 Level FlightAware ADS-B
09:35PM 42.1411 -74.5631 262° West 400 460 40,000  Descending FlightAware ADS-B
09:36PM 42.1330 -74.6446 262° West 401 461 40,100  Climbing FlightAware ADS-B
09:36PM 42.1252 -74.7213 262° West 402 463 40,000  Descending FlightAware ADS-B
09:37PM 42.1175 -74.7956 262° West 402 463 40,100 60 Climbing FlightAware ADS-B
09:37PM 42.1099 -74.8698 262° West 402 463 40,100  Level FlightAware ADS-B
09:38PM 42.1021 -74.9441 262° West 402 463 40,100  Level FlightAware ADS-B
09:38PM 42.0927 -75.0357 262° West 402 463 40,100  Level FlightAware ADS-B
09:39PM 42.0846 -75.1124 262° West 403 464 40,100 -120 Level FlightAware ADS-B
09:39PM 42.0759 -75.1940 262° West 403 464 40,000  Descending FlightAware ADS-B
09:40PM 42.0667 -75.2781 262° West 402 463 40,100  Climbing FlightAware ADS-B
09:40PM 42.0645 -75.2903 256° West 400 460 40,000  Descending FlightAware ADS-B
09:40PM 42.0583 -75.3187 254° West 397 457 40,100  Climbing FlightAware ADS-B
09:40PM 42.0420 -75.3678 246° West 393 452 40,000  Descending FlightAware ADS-B
09:41PM 42.0106 -75.4448 241° Southwest 392 451 40,100 60 Climbing FlightAware ADS-B
09:42PM 41.9787 -75.5210 241° Southwest 392 451 40,100 -120 Level FlightAware ADS-B
09:42PM 41.9518 -75.5848 240° Southwest 393 452 40,000  Descending FlightAware ADS-B
09:43PM 41.9231 -75.6550 241° Southwest 392 451 40,100 60 Climbing FlightAware ADS-B
09:43PM 41.8965 -75.7188 241° Southwest 392 451 40,100  Level FlightAware ADS-B
09:44PM 41.8662 -75.7911 241° Southwest 393 452 40,100  Level FlightAware ADS-B
09:44PM 41.8389 -75.8570 241° Southwest 393 452 40,100 -120 Level FlightAware ADS-B
09:45PM 41.8122 -75.9208 241° Southwest 394 453 40,000  Descending FlightAware ADS-B
09:45PM 41.7832 -75.9910 241° Southwest 394 453 40,100  Climbing FlightAware ADS-B
09:46PM 41.7560 -76.0568 241° Southwest 394 453 40,000  Descending FlightAware ADS-B
09:46PM 41.7278 -76.1228 240° Southwest 394 453 40,100 60 Climbing FlightAware ADS-B
09:47PM 41.7008 -76.1867 241° Southwest 396 456 40,100 -120 Level FlightAware ADS-B
09:47PM 41.6731 -76.2527 241° Southwest 396 456 40,000  Descending FlightAware ADS-B
09:48PM 41.6425 -76.3255 241° Southwest 397 457 40,100 60 Climbing FlightAware ADS-B
09:48PM 41.6150 -76.3896 240° Southwest 399 459 40,100  Level FlightAware ADS-B
09:49PM 41.5875 -76.4537 240° Southwest 400 460 40,100 -120 Level FlightAware ADS-B
09:49PM 41.5596 -76.5203 241° Southwest 400 460 40,000  Descending FlightAware ADS-B
09:50PM 41.5320 -76.5846 240° Southwest 400 460 40,100 60 Climbing FlightAware ADS-B
09:50PM 41.5031 -76.6532 241° Southwest 401 461 40,100  Level FlightAware ADS-B
09:51PM 41.4744 -76.7198 240° Southwest 402 463 40,100  Level FlightAware ADS-B
09:52PM 41.4441 -76.7887 240° Southwest 402 463 40,100  Level FlightAware ADS-B
09:52PM 41.4135 -76.8597 240° Southwest 403 464 40,100  Level FlightAware ADS-B
09:53PM 41.3813 -76.9349 240° Southwest 404 465 40,100  Level FlightAware ADS-B
09:53PM 41.3513 -77.0039 240° Southwest 404 465 40,100  Level FlightAware ADS-B
09:54PM 41.3223 -77.0709 240° Southwest 405 466 40,100  Level FlightAware ADS-B
09:54PM 41.2901 -77.1442 240° Southwest 406 467 40,100 -120 Level FlightAware ADS-B
09:55PM 41.2560 -77.2240 240° Southwest 406 467 40,000  Descending FlightAware ADS-B
09:56PM 41.2069 -77.3364 240° Southwest 407 468 40,100  Climbing FlightAware ADS-B
09:56PM 41.1738 -77.4120 240° Southwest 407 468 40,000  Descending FlightAware ADS-B
09:57PM 41.1413 -77.4852 239° Southwest 407 468 40,100  Climbing FlightAware ADS-B
09:57PM 41.1080 -77.5605 240° Southwest 406 467 40,000  Descending FlightAware ADS-B
09:58PM 41.0830 -77.6180 240° Southwest 406 467 40,100 60 Climbing FlightAware
09:58PM 41.0538 -77.6827 239° Southwest 406 467 40,100  Level FlightAware ADS-B
09:59PM 41.0060 -77.7900 239° Southwest 406 467 40,100 -60 Level FlightAware
10:00PM 40.9630 -77.8860 239° Southwest 406 467 40,000 -120 Descending FlightAware
10:01PM 40.9270 -77.9730 241° Southwest 410 472 40,000 60 Level FlightAware
10:02PM 40.9130 -78.0910 261° West 426 490 40,100  Climbing FlightAware
10:02PM 40.9100 -78.1850 268° West 425 489 40,000 -120 Descending FlightAware
10:03PM 40.9060 -78.2940 267° West 424 488 40,000  Level FlightAware
10:04PM 40.9020 -78.4100 267° West 423 487 40,000 60 Level FlightAware
10:04PM 40.8990 -78.5160 268° West 423 487 40,100  Climbing FlightAware
10:05PM 40.8950 -78.6240 267° West 424 488 40,000  Descending FlightAware
10:06PM 40.8910 -78.7280 267° West 425 489 40,100 60 Climbing FlightAware
10:06PM 40.8860 -78.8390 267° West 425 489 40,100  Level FlightAware
10:07PM 40.8820 -78.9560 267° West 424 488 40,100 -120 Level FlightAware
10:08PM 40.8780 -79.0560 267° West 424 488 40,000 -120 Descending FlightAware
10:09PM 40.8730 -79.1730 267° West 426 490 40,000  Level FlightAware
10:09PM 40.8680 -79.2830 267° West 428 493 40,000 60 Level FlightAware
10:10PM 40.8640 -79.3840 267° West 428 493 40,100 60 Climbing FlightAware
10:11PM 40.8590 -79.4890 266° West 429 494 40,100  Level FlightAware
10:11PM 40.8540 -79.6120 267° West 431 496 40,100 -120 Level FlightAware
10:12PM 40.8480 -79.7280 266° West 431 496 40,000 -120 Descending FlightAware
10:13PM 40.8430 -79.8400 267° West 429 494 40,000 60 Level FlightAware
10:13PM 40.8380 -79.9550 267° West 430 495 40,100 60 Climbing FlightAware
10:14PM 40.8330 -80.0600 266° West 430 495 40,100 -120 Level FlightAware
10:15PM 40.8280 -80.1650 266° West 432 497 40,000 -120 Descending FlightAware
10:16PM 40.8330 -80.2810 273° West 436 502 40,000 60 Level FlightAware
10:16PM 40.8410 -80.3900 276° West 435 501 40,100 60 Climbing FlightAware
10:17PM 40.8460 -80.4950 274° West 433 498 40,100 -120 Level FlightAware
10:18PM 40.8520 -80.6140 274° West 432 497 40,000  Descending FlightAware
10:18PM 40.8560 -80.7190 273° West 430 495 40,100  Climbing FlightAware
10:19PM 40.8620 -80.8400 274° West 430 495 40,000  Descending FlightAware
10:20PM 40.8660 -80.9420 273° West 430 495 40,100 60 Climbing FlightAware
10:20PM 40.8710 -81.0490 274° West 430 495 40,100  Level FlightAware
10:21PM 40.8760 -81.1650 273° West 431 496 40,100 -120 Level FlightAware
10:22PM 40.8810 -81.2700 274° West 432 497 40,000  Descending FlightAware
10:23PM 40.8850 -81.3860 273° West 432 497 40,100 60 Climbing FlightAware
10:23PM 40.8900 -81.4940 274° West 433 498 40,100 -120 Level FlightAware
10:24PM 40.8940 -81.6000 273° West 434 499 40,000 -120 Descending FlightAware
10:25PM 40.8990 -81.7190 273° West 434 499 40,000 60 Level FlightAware
10:25PM 40.9030 -81.8250 273° West 435 501 40,100 60 Climbing FlightAware
10:26PM 40.9070 -81.9470 273° West 436 502 40,100  Level FlightAware
10:27PM 40.9110 -82.0540 273° West 437 503 40,100  Level FlightAware
10:27PM 40.9150 -82.1610 273° West 438 504 40,100  Level FlightAware
10:28PM 40.9190 -82.2780 273° West 439 505 40,100  Level FlightAware
10:29PM 40.9220 -82.3690 273° West 439 505 40,100 -120 Level FlightAware
10:30PM 40.9260 -82.5060 272° West 440 506 40,000 -540 Descending FlightAware
10:30PM 40.9290 -82.6080 272° West 444 511 39,300 -1,380 Descending FlightAware
10:31PM 40.9330 -82.7240 273° West 453 521 38,200 -960 Descending FlightAware
10:32PM 40.9360 -82.8480 272° West 451 519 38,000 -120 Descending FlightAware
10:32PM 40.9390 -82.9580 272° West 453 521 38,100 -180 Climbing FlightAware
10:33PM 40.9430 -83.0860 272° West 456 525 37,800 -1,080 Descending FlightAware
10:34PM 40.9460 -83.1930 272° West 440 506 36,600 -2,880 Descending FlightAware
10:34PM 40.9480 -83.2830 272° West 434 499 34,200 -3,600 Descending FlightAware
10:35PM 40.9510 -83.4220 272° West 463 533 31,500 -2,760 Descending FlightAware
10:36PM 40.9540 -83.5350 272° West 455 524 30,100 -3,120 Descending FlightAware
10:37PM 40.9570 -83.6620 272° West 455 524 27,100 -4,200 Descending FlightAware
10:37PM 40.9590 -83.7740 271° West 454 522 24,200 -4,020 Descending FlightAware
10:38PM 40.9610 -83.8830 271° West 444 511 21,800 -3,480 Descending FlightAware
10:39PM 40.9630 -83.9970 271° West 426 490 19,300 -3,360 Descending FlightAware
10:39PM 40.9650 -84.0990 272° West 410 472 17,100 -3,540 Descending FlightAware
10:40PM 40.9670 -84.2160 271° West 402 463 14,300 -3,540 Descending FlightAware
10:41PM 40.9690 -84.3080 272° West 394 453 12,100 -2,580 Descending FlightAware
10:41PM 40.9700 -84.4010 271° West 357 411 10,900 -960 Descending FlightAware
10:42PM 40.9710 -84.4920 271° West 298 343 10,800 -120 Descending FlightAware
10:43PM 40.9720 -84.5600 271° West 282 325 10,800 -660 Level FlightAware
10:44PM 40.9770 -84.6380 275° West 276 318 9,900 -1,500 Descending FlightAware
10:44PM 40.9820 -84.6800 279° West 279 321 9,100 -1,800 Descending FlightAware
10:44PM 40.9890 -84.7330 280° West 276 318 8,300 -1,440 Descending FlightAware
10:45PM 40.9930 -84.7670 279° West 271 312 7,800 -660 Descending FlightAware
10:45PM 40.9990 -84.8160 279° West 272 313 7,700 -1,680 Descending FlightAware
10:46PM 41.0142 -84.9275 279° West 276 318 5,200 -2,040 Descending Chicago Center
10:48PM 41.0236 -85.0253 277° West 271 312 3,400 -1,560 Descending Chicago Center
10:49PM 41.0294 -85.1164 275° West 261 300 2,100 -840 Descending Chicago Center
10:50PM 41.0072 -85.1497 229° Southwest 210 242 1,700 -420 Descending Chicago Center